ハバロフスク の空港の天気 - METARとTAF

ハバロフスク空港 ( UHHH / KHV ) - ロシア ハバロフスク
飛行場実況気象(Metar)
観測時間10/20 14:00 VLAT (10/20 04:00 UTC)
風向・風速西南西 4m/s
視程10km以上
天気現象
なし
気温16℃
湿度31%
気圧1015hPa
METARUHHH 200400Z 25004MPS CAVOK 16/M01 Q1015 R23L/090060 NOSIG RMK QFE755/1007
過去の天気等 Google飛行場航空写真 Wunderground天気予報

過去48時間のMETAR

飛行場予報(TAF)
発表時間: 10/20 11:45 VLAT (10/20 01:45 UTC)
予報対象時間: 20日13時 VLAT ~ 21日19時 VLAT
風向・風速西南西 5m/s
視程10km以上
なし
20日19時 VLAT ~ 21日1時 VLAT に一時的に
風向・風速南南東 3m/s
全天の4割程度の積乱雲 雲底高度 610m
21日2時 VLAT から
風向・風速南 5m/s
視程10km以上
全天の8割程度の積乱雲 雲底高度 610m
21日4時 VLAT ~ 21日10時 VLAT に一時的に
風向・風速南南西 7m/s
視程3100m
天気現象弱いしゅう雨
全天の4割程度の雲 雲底高度 340m
全天の8割程度の積乱雲 雲底高度 610m
21日10時 VLAT から
風向・風速西南西 7m/s
視程10km以上
全天の4割程度の積乱雲 雲底高度 610m
21日10時 VLAT ~ 21日19時 VLAT に一時的に
風向・風速西 7m/s 瞬間風速 12m/s
視程5000m
天気現象弱いしゅう雨
全天の4割程度の雲 雲底高度 340m
全天の8割程度の積乱雲 雲底高度 610m
TAF UHHH 200145Z 2003/2109 24005MPS 9999 NSC
TEMPO 2009/2015 16003MPS SCT020CB
FM201600 17005MPS 9999 BKN020CB
TEMPO 2018/2024 21007MPS 3100 -SHRA SCT011 BKN020CB
FM210000 24007MPS 9999 SCT020CB
TEMPO 2100/2109 26007G12MPS 5000 -SHRA SCT011 BKN020CB